createdAt,value
2018-04-16T00:03:28.955Z,17.16
2018-04-16T00:07:29.781Z,22.14
2018-04-16T00:13:30.589Z,17.56
2018-04-16T00:17:31.411Z,17.93
2018-04-16T00:19:32.176Z,16.9
2018-04-16T00:23:32.880Z,17
2018-04-16T00:29:33.616Z,14.88
2018-04-16T00:33:34.368Z,15.78
2018-04-16T00:39:35.147Z,16.83
2018-04-16T00:43:35.910Z,17.19
2018-04-16T00:45:36.597Z,18.09
2018-04-16T00:49:37.336Z,15.09
2018-04-16T00:55:38.110Z,19.62
2018-04-16T00:59:38.913Z,19.54
2018-04-16T01:05:39.868Z,19.65
2018-04-16T01:11:40.835Z,18.88
2018-04-16T01:15:41.761Z,14.68
2018-04-16T01:21:42.694Z,18.92
2018-04-16T01:25:43.521Z,19.48
2018-04-16T01:27:44.251Z,20.29
2018-04-16T01:31:45.430Z,17.44
2018-04-16T01:37:46.080Z,17.52
2018-04-16T01:41:46.929Z,18.3
2018-04-16T01:47:47.664Z,18.2
2018-04-16T01:53:48.554Z,15.38
2018-04-16T01:57:49.351Z,15.35
2018-04-16T02:03:50.253Z,18.79
2018-04-16T02:07:51.007Z,17.57
2018-04-16T02:13:51.766Z,16.03
2018-04-16T02:19:52.514Z,20.37
2018-04-16T02:23:53.257Z,16.44
2018-04-16T02:29:54.176Z,14.82
2018-04-16T02:33:54.819Z,15.55
2018-04-16T02:35:55.532Z,13.26
2018-04-16T02:39:56.268Z,19.05
2018-04-16T02:45:57.005Z,18.32
2018-04-16T02:49:57.783Z,16.75
2018-04-16T02:55:58.520Z,20.08
2018-04-16T03:01:59.294Z,19.69
2018-04-16T03:06:00.085Z,20.86
2018-04-16T03:12:00.837Z,16.89
2018-04-16T03:16:01.698Z,16.61
2018-04-16T03:16:01.713Z,16.61
2018-04-16T03:18:02.317Z,15.18
2018-04-16T03:22:03.120Z,15.54
2018-04-16T03:28:03.812Z,22.89
2018-04-16T03:32:04.620Z,15.76
2018-04-16T03:38:05.290Z,19.54
2018-04-16T03:42:06.069Z,14.4
2018-04-16T03:44:06.755Z,18.58
2018-04-16T03:48:07.482Z,19.88
2018-04-16T03:54:08.290Z,18.97
2018-04-16T03:58:09.078Z,16.58
2018-04-16T04:04:10.109Z,21.2
2018-04-16T04:10:10.902Z,24.2
2018-04-16T04:14:11.691Z,18.38
2018-04-16T04:20:12.517Z,23.53
2018-04-16T04:24:13.372Z,25.5
2018-04-16T04:26:14.069Z,17.33
2018-04-16T04:30:15.143Z,21.24
2018-04-16T04:36:15.975Z,23.76
2018-04-16T04:40:16.775Z,21.96
2018-04-16T04:46:17.526Z,24.34
2018-04-16T04:52:18.307Z,26.53
2018-04-16T04:56:19.064Z,21.52
2018-04-16T05:02:19.833Z,23.09
2018-04-16T05:06:20.611Z,23.98
2018-04-16T05:08:21.475Z,24.55
2018-04-16T05:12:22.318Z,24.55
2018-04-16T05:18:23.274Z,24.2
2018-04-16T05:22:24.035Z,25.1
2018-04-16T05:28:25.004Z,32.27
2018-04-16T05:32:25.796Z,25.94
2018-04-16T05:34:26.461Z,29.97
2018-04-16T05:38:27.386Z,33.41
2018-04-16T05:44:28.174Z,26.82
2018-04-16T05:48:28.974Z,31.12
2018-04-16T05:54:29.856Z,30.24
2018-04-16T06:00:30.964Z,27.23
2018-04-16T06:04:31.959Z,27.28
2018-04-16T06:10:32.774Z,29.88
2018-04-16T06:14:33.725Z,24.12
2018-04-16T06:20:34.694Z,25.02
2018-04-16T06:26:35.668Z,25.55
2018-04-16T06:30:36.490Z,26.79
2018-04-16T06:36:37.575Z,23.93
2018-04-16T06:40:38.314Z,24.4
2018-04-16T06:42:39.163Z,22.34
2018-04-16T06:46:39.943Z,24.73
2018-04-16T06:52:40.733Z,21.75
2018-04-16T06:56:41.482Z,22.66
2018-04-16T07:02:42.284Z,22.84
2018-04-16T07:08:43.093Z,23.53
2018-04-16T07:12:44.068Z,21.23
2018-04-16T07:18:45.053Z,24.6
2018-04-16T07:22:46.045Z,24.15
2018-04-16T07:24:47.005Z,24.94
2018-04-16T07:28:47.745Z,27.58
2018-04-16T07:34:48.667Z,23.29
2018-04-16T07:38:49.606Z,27.38
2018-04-16T07:44:50.401Z,29.63
2018-04-16T07:48:51.472Z,22.47
2018-04-16T07:50:52.182Z,25.74
2018-04-16T07:54:53.241Z,21.63
2018-04-16T08:00:53.924Z,23.51
2018-04-16T08:04:54.686Z,24.77
2018-04-16T08:10:55.497Z,26.69
2018-04-16T08:16:56.523Z,29.6
2018-04-16T08:20:57.350Z,29.86
2018-04-16T08:26:58.316Z,26.9
2018-04-16T08:30:59.140Z,25.83
2018-04-16T08:33:00.159Z,27.49
2018-04-16T08:37:01.107Z,26.2
2018-04-16T08:43:01.913Z,23.2
2018-04-16T08:47:03.089Z,22
2018-04-16T08:53:03.986Z,25.58
2018-04-16T08:57:04.680Z,21.86
2018-04-16T08:59:05.480Z,21.99
2018-04-16T09:03:06.319Z,19.86
2018-04-16T09:09:07.260Z,26.41
2018-04-16T09:13:08.133Z,23.52
2018-04-16T09:19:08.942Z,25.66
2018-04-16T09:25:09.980Z,21.28
2018-04-16T09:29:10.807Z,21.49
2018-04-16T09:35:11.581Z,25.59
2018-04-16T09:39:12.303Z,23.96
2018-04-16T09:41:14.171Z,18.83
2018-04-16T09:45:15.178Z,20.75
2018-04-16T09:51:16.055Z,24.4
2018-04-16T09:55:16.948Z,23.87
2018-04-16T10:01:18.564Z,23.45
2018-04-16T10:07:19.602Z,25.23
2018-04-16T10:11:20.980Z,23.84
2018-04-16T10:17:22.011Z,24.48
2018-04-16T10:21:22.815Z,29.07
2018-04-16T10:27:23.740Z,24.04
2018-04-16T10:33:24.539Z,24.09
2018-04-16T10:37:25.318Z,24.98
2018-04-16T10:43:26.109Z,24.62
2018-04-16T10:47:26.956Z,29.69
2018-04-16T10:49:27.717Z,24.13
2018-04-16T10:53:28.642Z,24.38
2018-04-16T10:59:29.435Z,24.26
2018-04-16T11:03:30.138Z,27.69
2018-04-16T11:09:31.009Z,25.97
2018-04-16T11:15:32.168Z,28.68
2018-04-16T11:19:32.961Z,25.75
2018-04-16T11:25:33.660Z,31.02
2018-04-16T11:29:34.614Z,27.66
2018-04-16T11:35:35.350Z,27.89
2018-04-16T11:41:36.260Z,27.51
2018-04-16T11:45:37.284Z,24.62
2018-04-16T11:51:38.151Z,25.87
2018-04-16T11:55:39.078Z,25.87
2018-04-16T11:57:39.897Z,25.93
2018-04-16T12:01:40.652Z,27.17
2018-04-16T12:07:41.423Z,26.66
2018-04-16T12:11:42.667Z,24.87
2018-04-16T12:17:43.812Z,28.35
2018-04-16T12:23:44.723Z,30.73
2018-04-16T12:27:45.688Z,30.1
2018-04-16T12:33:46.567Z,27.01
2018-04-16T12:37:47.546Z,27.05
2018-04-16T12:39:48.430Z,28.93
2018-04-16T12:43:49.409Z,28.56
2018-04-16T12:49:51.247Z,26.72
2018-04-16T12:53:52.032Z,27.24
2018-04-16T12:59:52.840Z,29.72
2018-04-16T13:03:53.740Z,22.95
2018-04-16T13:05:54.439Z,29.72
2018-04-16T13:09:57.069Z,26.86
2018-04-16T13:15:59.663Z,26.55
2018-04-16T13:20:00.667Z,28.78
2018-04-16T13:26:01.532Z,31.84
2018-04-16T13:32:02.697Z,23.96
2018-04-16T13:36:03.476Z,26.42
2018-04-16T13:42:04.309Z,24.04
2018-04-16T13:46:05.020Z,25.38
2018-04-16T13:52:05.728Z,22.06
2018-04-16T13:58:06.711Z,24.67
2018-04-16T14:02:07.472Z,24.67
2018-04-16T14:08:08.516Z,18.61
2018-04-16T14:12:09.879Z,21.53
2018-04-16T14:14:11.263Z,25.13
2018-04-16T14:18:11.995Z,18.84
2018-04-16T14:24:12.924Z,20.72
2018-04-16T14:28:13.621Z,22.57
2018-04-16T14:34:14.593Z,22.38
2018-04-16T14:40:15.703Z,24.58
2018-04-16T14:44:16.444Z,26.27
2018-04-16T14:50:17.390Z,28.19
2018-04-16T14:54:18.095Z,31.09
2018-04-16T14:56:18.886Z,45.99
2018-04-16T15:00:19.909Z,40.69
2018-04-16T15:06:20.608Z,27.19
2018-04-16T15:10:21.363Z,25.5
2018-04-16T15:16:22.355Z,19.74
2018-04-16T15:20:23.136Z,18.99
2018-04-16T15:22:24.113Z,18.26
2018-04-16T15:26:24.894Z,20.82
2018-04-16T15:32:25.677Z,19.25
2018-04-16T15:36:26.632Z,22.33
2018-04-16T15:42:27.545Z,17.47
2018-04-16T15:48:28.329Z,17.94
2018-04-16T15:52:29.158Z,22.7
2018-04-16T15:58:30.239Z,19.7
2018-04-16T16:02:31.094Z,20.41
2018-04-16T16:04:32.373Z,16.62
2018-04-16T16:08:33.243Z,19.05
2018-04-16T16:14:34.378Z,23.45
2018-04-16T16:18:35.127Z,25.2
2018-04-16T16:24:35.927Z,23.84
2018-04-16T16:28:36.748Z,25.19
2018-04-16T16:30:37.386Z,23.15
2018-04-16T16:34:38.462Z,18.46
2018-04-16T16:40:39.674Z,15.15
2018-04-16T16:44:40.657Z,19.34
2018-04-16T16:50:41.979Z,19.73
2018-04-16T16:56:42.823Z,19.57
2018-04-16T17:00:43.640Z,20.35
2018-04-16T17:06:44.779Z,22.42
2018-04-16T17:10:45.588Z,19.27
2018-04-16T17:12:46.362Z,16.32
2018-04-16T17:16:47.241Z,14.71
2018-04-16T17:22:48.392Z,17.94
2018-04-16T17:26:49.807Z,20.13
2018-04-16T17:32:51.018Z,17.61
2018-04-16T17:36:52.212Z,19.3
2018-04-16T17:38:52.983Z,18.63
2018-04-16T17:42:53.647Z,15.55
2018-04-16T17:48:54.375Z,23.04
2018-04-16T17:52:55.537Z,22.2
2018-04-16T17:58:56.632Z,24.87
2018-04-16T18:04:57.760Z,22.76
2018-04-16T18:08:59.026Z,22.39
2018-04-16T18:15:00.697Z,20.52
2018-04-16T18:19:02.232Z,15.91
2018-04-16T18:25:04.030Z,17.2
2018-04-16T18:31:05.078Z,16.03
2018-04-16T18:35:06.376Z,15.47
2018-04-16T18:41:07.364Z,16.46
2018-04-16T18:45:08.453Z,17.56
2018-04-16T18:47:09.538Z,19.94
2018-04-16T18:51:10.547Z,20.76
2018-04-16T18:57:11.731Z,20.12
2018-04-16T19:01:13.038Z,17.15
2018-04-16T19:07:14.111Z,17.81
2018-04-16T19:13:15.345Z,17.81
2018-04-16T19:17:16.744Z,18.54
2018-04-16T19:23:17.451Z,16.47
2018-04-16T19:27:18.276Z,16.43
2018-04-16T19:33:19.092Z,16.63
2018-04-16T19:39:19.952Z,15.82
2018-04-16T19:43:21.329Z,13.49
2018-04-16T19:49:22.245Z,18.68
2018-04-16T19:53:22.962Z,12.7
2018-04-16T19:55:34.210Z,19.75
2018-04-16T19:59:35.148Z,17.99
2018-04-16T20:05:35.915Z,15.63
2018-04-16T20:09:36.740Z,13.33
2018-04-16T20:15:38.285Z,13.5
2018-04-16T20:19:39.356Z,17.46
2018-04-16T20:21:40.091Z,17.17
2018-04-16T20:25:40.991Z,14.08
2018-04-16T20:31:42.503Z,16.94
2018-04-16T20:35:43.435Z,13.51
2018-04-16T20:41:44.253Z,13.5
2018-04-16T20:45:45.308Z,19.92
2018-04-16T20:47:46.010Z,16.26
2018-04-16T20:51:46.842Z,15.36
2018-04-16T20:57:47.633Z,17.96
2018-04-16T21:01:48.387Z,15.89
2018-04-16T21:07:51.028Z,16.88
2018-04-16T21:13:51.931Z,15.14
2018-04-16T21:17:52.747Z,19.2
2018-04-16T21:23:53.613Z,17.79
2018-04-16T21:27:55.097Z,19.63
2018-04-16T21:29:55.765Z,15.52
2018-04-16T21:33:56.592Z,16.36
2018-04-16T21:39:57.522Z,15.82
2018-04-16T21:43:58.221Z,15.36
2018-04-16T21:49:58.920Z,18.83
2018-04-16T21:55:59.705Z,16.23
2018-04-16T22:00:00.671Z,16.99
2018-04-16T22:06:01.473Z,20.94
2018-04-16T22:10:02.329Z,19.77
2018-04-16T22:16:02.973Z,22.76
2018-04-16T22:22:03.771Z,18.34
2018-04-16T22:26:04.585Z,20.14
2018-04-16T22:32:05.298Z,14.8
2018-04-16T22:36:06.055Z,17.51
2018-04-16T22:38:06.771Z,16.56
2018-04-16T22:42:08.244Z,18.67
2018-04-16T22:48:09.664Z,15.34
2018-04-16T22:52:10.421Z,18.66
2018-04-16T22:58:11.211Z,14.09
2018-04-16T23:04:11.968Z,16.77
2018-04-16T23:08:12.756Z,15.9
2018-04-16T23:14:13.568Z,18.41
2018-04-16T23:18:14.321Z,17.07
2018-04-16T23:24:15.078Z,14.41
2018-04-16T23:30:16.118Z,16.69
2018-04-16T23:34:16.848Z,17.09
2018-04-16T23:40:17.642Z,14.86
2018-04-16T23:44:18.404Z,15.51
2018-04-16T23:46:19.139Z,15.93
2018-04-16T23:50:19.867Z,16.34
2018-04-16T23:56:20.606Z,14.92
